sensor_id;sensor_type;location;lat;lon;timestamp;temperature;humidity
48488;DHT22;34289;48.572;13.378;2022-09-12T00:00:03;13.40;99.90
48488;DHT22;34289;48.572;13.378;2022-09-12T00:02:28;13.40;99.90
48488;DHT22;34289;48.572;13.378;2022-09-12T00:04:54;13.40;99.90
48488;DHT22;34289;48.572;13.378;2022-09-12T00:07:20;13.40;99.90
48488;DHT22;34289;48.572;13.378;2022-09-12T00:09:46;13.30;99.90
48488;DHT22;34289;48.572;13.378;2022-09-12T00:12:11;13.40;99.90
48488;DHT22;34289;48.572;13.378;2022-09-12T00:14:37;12.40;99.90
48488;DHT22;34289;48.572;13.378;2022-09-12T00:17:03;13.40;99.90
48488;DHT22;34289;48.572;13.378;2022-09-12T00:19:29;13.30;99.90
48488;DHT22;34289;48.572;13.378;2022-09-12T00:21:55;13.30;99.90
48488;DHT22;34289;48.572;13.378;2022-09-12T00:24:21;13.50;99.90
48488;DHT22;34289;48.572;13.378;2022-09-12T00:26:48;13.30;99.90
48488;DHT22;34289;48.572;13.378;2022-09-12T00:29:15;13.20;99.90
48488;DHT22;34289;48.572;13.378;2022-09-12T00:31:41;13.20;99.90
48488;DHT22;34289;48.572;13.378;2022-09-12T00:34:08;13.20;99.90
48488;DHT22;34289;48.572;13.378;2022-09-12T00:36:34;13.20;99.90
48488;DHT22;34289;48.572;13.378;2022-09-12T00:39:01;13.20;99.90
48488;DHT22;34289;48.572;13.378;2022-09-12T00:41:38;13.20;99.90
48488;DHT22;34289;48.572;13.378;2022-09-12T00:46:56;13.20;99.90
48488;DHT22;34289;48.572;13.378;2022-09-12T00:52:23;13.20;99.90
48488;DHT22;34289;48.572;13.378;2022-09-12T00:57:38;13.20;99.90
48488;DHT22;34289;48.572;13.378;2022-09-12T01:00:12;13.10;99.90
48488;DHT22;34289;48.572;13.378;2022-09-12T01:02:48;13.30;99.90
48488;DHT22;34289;48.572;13.378;2022-09-12T01:05:15;13.30;99.90
48488;DHT22;34289;48.572;13.378;2022-09-12T01:07:42;13.20;99.90
48488;DHT22;34289;48.572;13.378;2022-09-12T01:10:09;13.20;99.90
48488;DHT22;34289;48.572;13.378;2022-09-12T01:12:38;13.20;99.90
48488;DHT22;34289;48.572;13.378;2022-09-12T01:15:05;13.20;99.90
48488;DHT22;34289;48.572;13.378;2022-09-12T01:20:45;13.10;99.90
48488;DHT22;34289;48.572;13.378;2022-09-12T01:25:42;13.20;99.90
48488;DHT22;34289;48.572;13.378;2022-09-12T01:31:20;13.10;99.90
48488;DHT22;34289;48.572;13.378;2022-09-12T01:33:55;13.10;99.90
48488;DHT22;34289;48.572;13.378;2022-09-12T01:36:48;13.00;99.90
48488;DHT22;34289;48.572;13.378;2022-09-12T01:39:39;13.00;99.90
48488;DHT22;34289;48.572;13.378;2022-09-12T01:42:19;13.00;99.90
48488;DHT22;34289;48.572;13.378;2022-09-12T01:45:00;13.00;99.90
48488;DHT22;34289;48.572;13.378;2022-09-12T01:47:46;13.00;99.90
48488;DHT22;34289;48.572;13.378;2022-09-12T01:50:27;13.00;99.90
48488;DHT22;34289;48.572;13.378;2022-09-12T01:53:04;13.10;99.90
48488;DHT22;34289;48.572;13.378;2022-09-12T01:55:40;12.90;99.90
48488;DHT22;34289;48.572;13.378;2022-09-12T02:00:48;12.80;99.90
48488;DHT22;34289;48.572;13.378;2022-09-12T02:03:19;12.90;99.90
48488;DHT22;34289;48.572;13.378;2022-09-12T02:05:52;12.70;99.90
48488;DHT22;34289;48.572;13.378;2022-09-12T02:08:30;12.70;99.90
48488;DHT22;34289;48.572;13.378;2022-09-12T02:11:02;12.70;99.90
48488;DHT22;34289;48.572;13.378;2022-09-12T02:13:41;12.70;99.90
48488;DHT22;34289;48.572;13.378;2022-09-12T02:18:49;12.60;99.90
48488;DHT22;34289;48.572;13.378;2022-09-12T02:21:19;12.50;99.90
48488;DHT22;34289;48.572;13.378;2022-09-12T02:23:51;12.70;99.90
48488;DHT22;34289;48.572;13.378;2022-09-12T02:26:22;12.40;99.90
48488;DHT22;34289;48.572;13.378;2022-09-12T02:28:50;12.40;99.90
48488;DHT22;34289;48.572;13.378;2022-09-12T02:31:23;12.30;99.90
48488;DHT22;34289;48.572;13.378;2022-09-12T02:34:09;12.30;99.90
48488;DHT22;34289;48.572;13.378;2022-09-12T02:39:17;12.40;99.90
48488;DHT22;34289;48.572;13.378;2022-09-12T02:41:53;12.30;99.90
48488;DHT22;34289;48.572;13.378;2022-09-12T02:44:20;12.30;99.90
48488;DHT22;34289;48.572;13.378;2022-09-12T02:46:49;12.30;99.90
48488;DHT22;34289;48.572;13.378;2022-09-12T02:49:16;12.40;99.90
48488;DHT22;34289;48.572;13.378;2022-09-12T02:51:41;12.50;99.90
48488;DHT22;34289;48.572;13.378;2022-09-12T02:54:08;12.80;99.90
48488;DHT22;34289;48.572;13.378;2022-09-12T02:56:35;12.40;99.90
48488;DHT22;34289;48.572;13.378;2022-09-12T02:59:07;12.40;99.90
48488;DHT22;34289;48.572;13.378;2022-09-12T03:07:10;12.50;99.90
48488;DHT22;34289;48.572;13.378;2022-09-12T03:10:06;12.60;99.90
48488;DHT22;34289;48.572;13.378;2022-09-12T03:26:24;12.60;99.90
48488;DHT22;34289;48.572;13.378;2022-09-12T03:28:51;12.60;99.90
48488;DHT22;34289;48.572;13.378;2022-09-12T03:31:19;12.60;99.90
48488;DHT22;34289;48.572;13.378;2022-09-12T03:33:45;12.70;99.90
48488;DHT22;34289;48.572;13.378;2022-09-12T03:36:17;12.60;99.90
48488;DHT22;34289;48.572;13.378;2022-09-12T03:38:43;12.60;99.90
48488;DHT22;34289;48.572;13.378;2022-09-12T03:41:09;12.60;99.90
48488;DHT22;34289;48.572;13.378;2022-09-12T03:43:35;13.00;99.90
48488;DHT22;34289;48.572;13.378;2022-09-12T03:46:00;12.70;99.90
48488;DHT22;34289;48.572;13.378;2022-09-12T03:48:26;12.80;99.90
48488;DHT22;34289;48.572;13.378;2022-09-12T03:50:52;12.70;99.90
48488;DHT22;34289;48.572;13.378;2022-09-12T03:53:17;13.10;99.90
48488;DHT22;34289;48.572;13.378;2022-09-12T03:55:43;12.80;99.90
48488;DHT22;34289;48.572;13.378;2022-09-12T03:58:09;12.90;99.90
48488;DHT22;34289;48.572;13.378;2022-09-12T04:00:34;12.80;99.90
48488;DHT22;34289;48.572;13.378;2022-09-12T04:03:00;12.90;99.90
48488;DHT22;34289;48.572;13.378;2022-09-12T04:05:29;13.00;99.90
48488;DHT22;34289;48.572;13.378;2022-09-12T04:07:54;12.90;99.90
48488;DHT22;34289;48.572;13.378;2022-09-12T04:10:20;12.90;99.90
48488;DHT22;34289;48.572;13.378;2022-09-12T04:12:46;12.90;99.90
48488;DHT22;34289;48.572;13.378;2022-09-12T04:15:12;12.80;99.90
48488;DHT22;34289;48.572;13.378;2022-09-12T04:17:38;12.80;99.90
48488;DHT22;34289;48.572;13.378;2022-09-12T04:20:04;12.80;99.90
48488;DHT22;34289;48.572;13.378;2022-09-12T04:22:30;12.90;99.90
48488;DHT22;34289;48.572;13.378;2022-09-12T04:24:56;12.80;99.90
48488;DHT22;34289;48.572;13.378;2022-09-12T04:27:22;12.90;99.90
48488;DHT22;34289;48.572;13.378;2022-09-12T04:29:50;12.90;99.90
48488;DHT22;34289;48.572;13.378;2022-09-12T04:32:15;13.00;99.90
48488;DHT22;34289;48.572;13.378;2022-09-12T04:34:42;13.10;99.90
48488;DHT22;34289;48.572;13.378;2022-09-12T04:37:08;12.90;99.90
48488;DHT22;34289;48.572;13.378;2022-09-12T04:39:36;12.90;99.90
48488;DHT22;34289;48.572;13.378;2022-09-12T04:42:01;12.90;99.90
48488;DHT22;34289;48.572;13.378;2022-09-12T04:44:29;13.00;99.90
48488;DHT22;34289;48.572;13.378;2022-09-12T04:46:55;12.90;99.90
48488;DHT22;34289;48.572;13.378;2022-09-12T04:49:21;12.90;99.90
48488;DHT22;34289;48.572;13.378;2022-09-12T04:51:47;13.10;99.90
48488;DHT22;34289;48.572;13.378;2022-09-12T04:54:18;13.00;99.90
48488;DHT22;34289;48.572;13.378;2022-09-12T04:56:46;13.00;99.90
48488;DHT22;34289;48.572;13.378;2022-09-12T04:59:14;12.90;99.90
48488;DHT22;34289;48.572;13.378;2022-09-12T05:01:41;12.90;99.90
48488;DHT22;34289;48.572;13.378;2022-09-12T05:04:08;12.90;99.90
48488;DHT22;34289;48.572;13.378;2022-09-12T05:06:35;12.90;99.90
48488;DHT22;34289;48.572;13.378;2022-09-12T05:09:02;13.00;99.90
48488;DHT22;34289;48.572;13.378;2022-09-12T05:11:30;13.00;99.90
48488;DHT22;34289;48.572;13.378;2022-09-12T05:13:56;13.20;99.90
48488;DHT22;34289;48.572;13.378;2022-09-12T05:16:25;13.20;99.90
48488;DHT22;34289;48.572;13.378;2022-09-12T05:18:51;13.50;99.90
48488;DHT22;34289;48.572;13.378;2022-09-12T05:21:19;13.10;99.90
48488;DHT22;34289;48.572;13.378;2022-09-12T05:23:45;13.20;99.90
48488;DHT22;34289;48.572;13.378;2022-09-12T05:26:15;13.30;99.90
48488;DHT22;34289;48.572;13.378;2022-09-12T05:28:41;13.60;99.90
48488;DHT22;34289;48.572;13.378;2022-09-12T05:31:11;13.30;99.90
48488;DHT22;34289;48.572;13.378;2022-09-12T05:33:38;13.40;99.90
48488;DHT22;34289;48.572;13.378;2022-09-12T05:36:12;13.50;99.90
48488;DHT22;34289;48.572;13.378;2022-09-12T05:38:38;13.40;99.90
48488;DHT22;34289;48.572;13.378;2022-09-12T05:41:05;13.50;99.90
48488;DHT22;34289;48.572;13.378;2022-09-12T05:43:36;13.50;99.90
48488;DHT22;34289;48.572;13.378;2022-09-12T05:46:08;13.50;99.90
48488;DHT22;34289;48.572;13.378;2022-09-12T05:48:35;13.80;99.90
48488;DHT22;34289;48.572;13.378;2022-09-12T05:51:07;13.60;99.90
48488;DHT22;34289;48.572;13.378;2022-09-12T05:53:34;13.60;99.90
48488;DHT22;34289;48.572;13.378;2022-09-12T05:58:29;13.70;99.90
48488;DHT22;34289;48.572;13.378;2022-09-12T06:00:54;13.70;99.90
48488;DHT22;34289;48.572;13.378;2022-09-12T06:03:21;13.90;99.90
48488;DHT22;34289;48.572;13.378;2022-09-12T06:05:47;13.60;99.90
48488;DHT22;34289;48.572;13.378;2022-09-12T06:08:13;13.50;99.90
48488;DHT22;34289;48.572;13.378;2022-09-12T06:10:38;13.60;99.90
48488;DHT22;34289;48.572;13.378;2022-09-12T06:13:04;14.00;99.90
48488;DHT22;34289;48.572;13.378;2022-09-12T06:15:29;13.60;99.90
48488;DHT22;34289;48.572;13.378;2022-09-12T06:17:55;13.70;99.90
48488;DHT22;34289;48.572;13.378;2022-09-12T06:20:21;13.80;99.90
48488;DHT22;34289;48.572;13.378;2022-09-12T06:22:46;13.90;99.90
48488;DHT22;34289;48.572;13.378;2022-09-12T06:25:12;14.00;99.90
48488;DHT22;34289;48.572;13.378;2022-09-12T06:27:38;14.10;99.90
48488;DHT22;34289;48.572;13.378;2022-09-12T06:30:05;14.10;99.90
48488;DHT22;34289;48.572;13.378;2022-09-12T06:32:31;14.10;99.90
48488;DHT22;34289;48.572;13.378;2022-09-12T06:34:57;14.10;99.90
48488;DHT22;34289;48.572;13.378;2022-09-12T06:37:23;14.20;99.90
48488;DHT22;34289;48.572;13.378;2022-09-12T06:39:48;14.30;99.90
48488;DHT22;34289;48.572;13.378;2022-09-12T06:42:14;15.00;99.90
48488;DHT22;34289;48.572;13.378;2022-09-12T06:44:39;14.30;99.90
48488;DHT22;34289;48.572;13.378;2022-09-12T06:47:05;15.30;99.90
48488;DHT22;34289;48.572;13.378;2022-09-12T06:49:32;14.30;99.90
48488;DHT22;34289;48.572;13.378;2022-09-12T06:51:58;14.30;99.90
48488;DHT22;34289;48.572;13.378;2022-09-12T06:54:23;14.30;99.90
48488;DHT22;34289;48.572;13.378;2022-09-12T06:56:50;14.30;99.90
48488;DHT22;34289;48.572;13.378;2022-09-12T06:59:16;14.30;99.90
48488;DHT22;34289;48.572;13.378;2022-09-12T07:01:42;14.50;99.90
48488;DHT22;34289;48.572;13.378;2022-09-12T07:04:09;14.50;99.90
48488;DHT22;34289;48.572;13.378;2022-09-12T07:06:41;14.50;99.90
48488;DHT22;34289;48.572;13.378;2022-09-12T07:09:13;14.60;99.90
48488;DHT22;34289;48.572;13.378;2022-09-12T07:11:43;14.80;99.90
48488;DHT22;34289;48.572;13.378;2022-09-12T07:14:11;14.90;99.90
48488;DHT22;34289;48.572;13.378;2022-09-12T07:16:38;14.90;99.90
48488;DHT22;34289;48.572;13.378;2022-09-12T07:19:05;15.00;99.90
48488;DHT22;34289;48.572;13.378;2022-09-12T07:21:32;15.10;99.90
48488;DHT22;34289;48.572;13.378;2022-09-12T07:24:00;15.20;99.90
48488;DHT22;34289;48.572;13.378;2022-09-12T07:26:27;15.20;99.90
48488;DHT22;34289;48.572;13.378;2022-09-12T07:28:54;15.20;99.90
48488;DHT22;34289;48.572;13.378;2022-09-12T07:31:22;15.20;99.90
48488;DHT22;34289;48.572;13.378;2022-09-12T07:33:48;15.30;99.90
48488;DHT22;34289;48.572;13.378;2022-09-12T07:36:17;15.30;99.90
48488;DHT22;34289;48.572;13.378;2022-09-12T07:38:44;15.30;99.90
48488;DHT22;34289;48.572;13.378;2022-09-12T07:41:16;15.70;99.90
48488;DHT22;34289;48.572;13.378;2022-09-12T07:43:43;15.40;99.90
48488;DHT22;34289;48.572;13.378;2022-09-12T07:46:09;15.50;99.90
48488;DHT22;34289;48.572;13.378;2022-09-12T07:48:36;15.60;99.90
48488;DHT22;34289;48.572;13.378;2022-09-12T07:51:06;15.60;99.90
48488;DHT22;34289;48.572;13.378;2022-09-12T07:53:35;15.60;99.90
48488;DHT22;34289;48.572;13.378;2022-09-12T07:56:01;15.60;99.90
48488;DHT22;34289;48.572;13.378;2022-09-12T07:58:29;15.70;99.90
48488;DHT22;34289;48.572;13.378;2022-09-12T08:01:01;15.70;99.90
48488;DHT22;34289;48.572;13.378;2022-09-12T08:03:27;15.70;99.90
48488;DHT22;34289;48.572;13.378;2022-09-12T08:05:52;15.80;99.90
48488;DHT22;34289;48.572;13.378;2022-09-12T08:08:18;15.80;99.90
48488;DHT22;34289;48.572;13.378;2022-09-12T08:10:43;15.80;99.90
48488;DHT22;34289;48.572;13.378;2022-09-12T08:13:09;15.70;99.90
48488;DHT22;34289;48.572;13.378;2022-09-12T08:15:35;16.50;99.90
48488;DHT22;34289;48.572;13.378;2022-09-12T08:18:01;15.70;99.90
48488;DHT22;34289;48.572;13.378;2022-09-12T08:20:26;15.80;99.90
48488;DHT22;34289;48.572;13.378;2022-09-12T08:22:52;15.80;99.90
48488;DHT22;34289;48.572;13.378;2022-09-12T08:25:18;15.80;99.90
48488;DHT22;34289;48.572;13.378;2022-09-12T08:27:44;15.90;99.90
48488;DHT22;34289;48.572;13.378;2022-09-12T08:30:11;16.20;99.90
48488;DHT22;34289;48.572;13.378;2022-09-12T08:32:37;16.30;99.90
48488;DHT22;34289;48.572;13.378;2022-09-12T08:35:03;16.40;99.90
48488;DHT22;34289;48.572;13.378;2022-09-12T08:37:29;16.60;99.90
48488;DHT22;34289;48.572;13.378;2022-09-12T08:39:55;16.80;99.90
48488;DHT22;34289;48.572;13.378;2022-09-12T08:42:51;17.00;99.90
48488;DHT22;34289;48.572;13.378;2022-09-12T08:45:16;17.10;99.90
48488;DHT22;34289;48.572;13.378;2022-09-12T08:47:45;17.30;99.90
48488;DHT22;34289;48.572;13.378;2022-09-12T08:50:15;17.50;99.90
48488;DHT22;34289;48.572;13.378;2022-09-12T08:53:02;17.60;99.90
48488;DHT22;34289;48.572;13.378;2022-09-12T08:55:44;17.60;99.90
48488;DHT22;34289;48.572;13.378;2022-09-12T08:58:21;17.50;99.90
48488;DHT22;34289;48.572;13.378;2022-09-12T09:22:50;17.80;99.90
48488;DHT22;34289;48.572;13.378;2022-09-12T09:25:24;18.10;99.90
48488;DHT22;34289;48.572;13.378;2022-09-12T09:27:58;18.30;99.90
48488;DHT22;34289;48.572;13.378;2022-09-12T09:30:25;18.40;99.90
48488;DHT22;34289;48.572;13.378;2022-09-12T09:32:54;18.70;99.90
48488;DHT22;34289;48.572;13.378;2022-09-12T09:41:28;19.40;99.90
48488;DHT22;34289;48.572;13.378;2022-09-12T09:43:56;19.90;99.90
48488;DHT22;34289;48.572;13.378;2022-09-12T09:46:22;19.80;99.90
48488;DHT22;34289;48.572;13.378;2022-09-12T09:48:48;20.10;99.90
48488;DHT22;34289;48.572;13.378;2022-09-12T09:51:17;20.20;99.90
48488;DHT22;34289;48.572;13.378;2022-09-12T09:53:55;20.10;99.90
48488;DHT22;34289;48.572;13.378;2022-09-12T09:56:40;20.10;99.90
48488;DHT22;34289;48.572;13.378;2022-09-12T09:59:16;20.10;99.90
48488;DHT22;34289;48.572;13.378;2022-09-12T10:01:52;20.30;99.90
48488;DHT22;34289;48.572;13.378;2022-09-12T10:04:31;20.10;99.90
48488;DHT22;34289;48.572;13.378;2022-09-12T10:07:00;20.10;99.90
48488;DHT22;34289;48.572;13.378;2022-09-12T10:09:34;19.90;99.90
48488;DHT22;34289;48.572;13.378;2022-09-12T10:12:28;19.70;99.90
48488;DHT22;34289;48.572;13.378;2022-09-12T10:15:02;19.70;99.90
48488;DHT22;34289;48.572;13.378;2022-09-12T10:17:31;20.00;99.90
48488;DHT22;34289;48.572;13.378;2022-09-12T10:20:05;20.40;99.90
48488;DHT22;34289;48.572;13.378;2022-09-12T10:22:50;20.30;99.90
48488;DHT22;34289;48.572;13.378;2022-09-12T10:25:17;20.20;99.90
48488;DHT22;34289;48.572;13.378;2022-09-12T10:27:55;20.30;99.90
48488;DHT22;34289;48.572;13.378;2022-09-12T10:30:22;20.60;99.90
48488;DHT22;34289;48.572;13.378;2022-09-12T10:32:57;20.80;99.90
48488;DHT22;34289;48.572;13.378;2022-09-12T10:35:44;21.00;99.90
48488;DHT22;34289;48.572;13.378;2022-09-12T10:38:23;21.30;99.90
48488;DHT22;34289;48.572;13.378;2022-09-12T10:41:05;21.60;99.90
48488;DHT22;34289;48.572;13.378;2022-09-12T10:46:09;21.40;99.90
48488;DHT22;34289;48.572;13.378;2022-09-12T10:48:45;21.40;99.90
48488;DHT22;34289;48.572;13.378;2022-09-12T10:54:01;21.70;99.90
48488;DHT22;34289;48.572;13.378;2022-09-12T10:56:30;21.70;99.90
48488;DHT22;34289;48.572;13.378;2022-09-12T11:01:47;22.30;99.90
48488;DHT22;34289;48.572;13.378;2022-09-12T11:20:48;22.30;99.90
48488;DHT22;34289;48.572;13.378;2022-09-12T11:34:51;21.80;99.90
48488;DHT22;34289;48.572;13.378;2022-09-12T11:40:33;22.10;99.90
48488;DHT22;34289;48.572;13.378;2022-09-12T11:45:55;22.20;99.90
48488;DHT22;34289;48.572;13.378;2022-09-12T11:48:46;22.20;99.90
48488;DHT22;34289;48.572;13.378;2022-09-12T11:51:38;22.20;99.90
48488;DHT22;34289;48.572;13.378;2022-09-12T11:54:11;22.30;99.90
48488;DHT22;34289;48.572;13.378;2022-09-12T11:56:43;22.40;99.90
48488;DHT22;34289;48.572;13.378;2022-09-12T12:00:03;22.60;99.90
48488;DHT22;34289;48.572;13.378;2022-09-12T12:02:11;22.60;99.90
48488;DHT22;34289;48.572;13.378;2022-09-12T12:04:43;22.60;99.90
48488;DHT22;34289;48.572;13.378;2022-09-12T12:07:12;22.30;99.90
48488;DHT22;34289;48.572;13.378;2022-09-12T12:09:49;22.20;99.90
48488;DHT22;34289;48.572;13.378;2022-09-12T12:12:20;22.30;99.90
48488;DHT22;34289;48.572;13.378;2022-09-12T12:14:48;22.60;99.90
48488;DHT22;34289;48.572;13.378;2022-09-12T12:17:17;22.90;99.90
48488;DHT22;34289;48.572;13.378;2022-09-12T12:19:45;23.30;99.90
48488;DHT22;34289;48.572;13.378;2022-09-12T12:22:21;23.70;99.90
48488;DHT22;34289;48.572;13.378;2022-09-12T12:38:37;24.10;99.90
48488;DHT22;34289;48.572;13.378;2022-09-12T12:46:15;23.70;99.90
48488;DHT22;34289;48.572;13.378;2022-09-12T12:48:51;23.80;99.90
48488;DHT22;34289;48.572;13.378;2022-09-12T12:51:37;24.10;99.00
48488;DHT22;34289;48.572;13.378;2022-09-12T12:54:46;24.40;99.90
48488;DHT22;34289;48.572;13.378;2022-09-12T12:59:53;24.80;98.70
48488;DHT22;34289;48.572;13.378;2022-09-12T13:02:27;25.40;98.70
48488;DHT22;34289;48.572;13.378;2022-09-12T13:04:54;25.70;98.00
48488;DHT22;34289;48.572;13.378;2022-09-12T13:07:29;26.00;98.20
48488;DHT22;34289;48.572;13.378;2022-09-12T13:09:56;26.00;99.90
48488;DHT22;34289;48.572;13.378;2022-09-12T13:12:28;25.60;99.40
48488;DHT22;34289;48.572;13.378;2022-09-12T13:14:59;25.70;97.10
48488;DHT22;34289;48.572;13.378;2022-09-12T13:17:38;25.70;97.10
48488;DHT22;34289;48.572;13.378;2022-09-12T13:22:39;26.70;96.90
48488;DHT22;34289;48.572;13.378;2022-09-12T13:25:20;26.70;96.70
48488;DHT22;34289;48.572;13.378;2022-09-12T13:28:16;26.20;96.10
48488;DHT22;34289;48.572;13.378;2022-09-12T13:30:46;26.60;95.10
48488;DHT22;34289;48.572;13.378;2022-09-12T13:44:21;27.00;94.10
48488;DHT22;34289;48.572;13.378;2022-09-12T13:46:48;27.30;95.10
48488;DHT22;34289;48.572;13.378;2022-09-12T13:52:00;27.50;94.10
48488;DHT22;34289;48.572;13.378;2022-09-12T13:54:26;27.50;93.90
48488;DHT22;34289;48.572;13.378;2022-09-12T13:56:52;27.90;94.20
48488;DHT22;34289;48.572;13.378;2022-09-12T13:59:17;28.20;94.50
48488;DHT22;34289;48.572;13.378;2022-09-12T14:01:47;27.90;92.40
48488;DHT22;34289;48.572;13.378;2022-09-12T14:04:21;27.70;91.90
48488;DHT22;34289;48.572;13.378;2022-09-12T14:07:32;26.80;91.90
48488;DHT22;34289;48.572;13.378;2022-09-12T14:10:00;26.10;92.70
48488;DHT22;34289;48.572;13.378;2022-09-12T14:12:36;26.50;93.60
48488;DHT22;34289;48.572;13.378;2022-09-12T14:15:04;26.30;91.80
48488;DHT22;34289;48.572;13.378;2022-09-12T14:17:35;25.80;92.10
48488;DHT22;34289;48.572;13.378;2022-09-12T14:20:07;26.20;92.40
48488;DHT22;34289;48.572;13.378;2022-09-12T14:22:35;26.80;92.80
48488;DHT22;34289;48.572;13.378;2022-09-12T14:25:01;28.40;92.70
48488;DHT22;34289;48.572;13.378;2022-09-12T14:27:41;29.30;90.80
48488;DHT22;34289;48.572;13.378;2022-09-12T14:30:25;28.80;88.60
48488;DHT22;34289;48.572;13.378;2022-09-12T14:36:07;27.90;88.90
48488;DHT22;34289;48.572;13.378;2022-09-12T14:38:36;27.90;90.80
48488;DHT22;34289;48.572;13.378;2022-09-12T14:41:09;28.50;90.60
48488;DHT22;34289;48.572;13.378;2022-09-12T14:43:44;29.20;89.50
48488;DHT22;34289;48.572;13.378;2022-09-12T14:46:21;29.30;88.10
48488;DHT22;34289;48.572;13.378;2022-09-12T14:48:52;29.00;87.70
48488;DHT22;34289;48.572;13.378;2022-09-12T14:51:25;30.10;88.10
48488;DHT22;34289;48.572;13.378;2022-09-12T14:53:51;30.90;86.90
48488;DHT22;34289;48.572;13.378;2022-09-12T14:56:20;31.40;87.10
48488;DHT22;34289;48.572;13.378;2022-09-12T14:58:46;30.90;85.60
48488;DHT22;34289;48.572;13.378;2022-09-12T15:03:50;29.60;85.20
48488;DHT22;34289;48.572;13.378;2022-09-12T15:06:29;29.30;86.40
48488;DHT22;34289;48.572;13.378;2022-09-12T15:08:57;28.60;85.40
48488;DHT22;34289;48.572;13.378;2022-09-12T15:11:23;28.20;87.70
48488;DHT22;34289;48.572;13.378;2022-09-12T15:13:49;28.30;89.10
48488;DHT22;34289;48.572;13.378;2022-09-12T15:16:15;28.60;90.30
48488;DHT22;34289;48.572;13.378;2022-09-12T15:18:41;28.70;88.30
48488;DHT22;34289;48.572;13.378;2022-09-12T15:21:11;28.70;87.70
48488;DHT22;34289;48.572;13.378;2022-09-12T15:26:12;27.50;87.70
48488;DHT22;34289;48.572;13.378;2022-09-12T15:28:38;26.70;90.70
48488;DHT22;34289;48.572;13.378;2022-09-12T15:31:09;25.90;90.60
48488;DHT22;34289;48.572;13.378;2022-09-12T15:33:35;24.90;91.40
48488;DHT22;34289;48.572;13.378;2022-09-12T15:36:01;24.30;92.20
48488;DHT22;34289;48.572;13.378;2022-09-12T15:38:26;23.90;92.50
48488;DHT22;34289;48.572;13.378;2022-09-12T15:40:52;23.70;92.90
48488;DHT22;34289;48.572;13.378;2022-09-12T15:43:22;23.70;93.80
48488;DHT22;34289;48.572;13.378;2022-09-12T15:45:48;23.80;93.90
48488;DHT22;34289;48.572;13.378;2022-09-12T15:48:16;23.80;95.80
48488;DHT22;34289;48.572;13.378;2022-09-12T15:50:42;23.70;95.10
48488;DHT22;34289;48.572;13.378;2022-09-12T15:53:13;23.40;95.80
48488;DHT22;34289;48.572;13.378;2022-09-12T15:55:39;23.20;99.40
48488;DHT22;34289;48.572;13.378;2022-09-12T15:58:06;23.10;98.10
48488;DHT22;34289;48.572;13.378;2022-09-12T16:00:32;22.90;97.70
48488;DHT22;34289;48.572;13.378;2022-09-12T16:02:57;22.80;99.80
48488;DHT22;34289;48.572;13.378;2022-09-12T16:05:24;22.60;99.90
48488;DHT22;34289;48.572;13.378;2022-09-12T16:07:52;22.40;99.90
48488;DHT22;34289;48.572;13.378;2022-09-12T16:10:24;22.30;99.90
48488;DHT22;34289;48.572;13.378;2022-09-12T16:12:50;22.10;99.90
48488;DHT22;34289;48.572;13.378;2022-09-12T16:15:19;22.10;99.90
48488;DHT22;34289;48.572;13.378;2022-09-12T16:17:45;22.00;99.90
48488;DHT22;34289;48.572;13.378;2022-09-12T16:20:11;21.90;99.90
48488;DHT22;34289;48.572;13.378;2022-09-12T16:22:37;21.80;99.90
48488;DHT22;34289;48.572;13.378;2022-09-12T16:25:04;21.90;99.90
48488;DHT22;34289;48.572;13.378;2022-09-12T16:27:30;21.80;99.90
48488;DHT22;34289;48.572;13.378;2022-09-12T16:29:56;21.70;99.90
48488;DHT22;34289;48.572;13.378;2022-09-12T16:32:21;21.60;99.90
48488;DHT22;34289;48.572;13.378;2022-09-12T16:34:47;21.50;99.90
48488;DHT22;34289;48.572;13.378;2022-09-12T16:37:14;21.40;99.90
48488;DHT22;34289;48.572;13.378;2022-09-12T16:39:39;21.20;99.90
48488;DHT22;34289;48.572;13.378;2022-09-12T16:42:05;20.90;99.90
48488;DHT22;34289;48.572;13.378;2022-09-12T16:44:31;20.80;99.90
48488;DHT22;34289;48.572;13.378;2022-09-12T16:46:56;20.60;99.90
48488;DHT22;34289;48.572;13.378;2022-09-12T16:49:22;20.50;99.90
48488;DHT22;34289;48.572;13.378;2022-09-12T16:51:47;20.40;99.90
48488;DHT22;34289;48.572;13.378;2022-09-12T16:54:14;20.20;99.90
48488;DHT22;34289;48.572;13.378;2022-09-12T16:56:40;20.00;99.90
48488;DHT22;34289;48.572;13.378;2022-09-12T16:59:06;19.80;99.90
48488;DHT22;34289;48.572;13.378;2022-09-12T17:01:35;19.50;99.90
48488;DHT22;34289;48.572;13.378;2022-09-12T17:04:01;19.30;99.90
48488;DHT22;34289;48.572;13.378;2022-09-12T17:06:27;19.10;99.90
48488;DHT22;34289;48.572;13.378;2022-09-12T17:08:54;19.00;99.90
48488;DHT22;34289;48.572;13.378;2022-09-12T17:11:26;18.90;99.90
48488;DHT22;34289;48.572;13.378;2022-09-12T17:13:55;18.70;99.90
48488;DHT22;34289;48.572;13.378;2022-09-12T17:16:22;18.60;99.90
48488;DHT22;34289;48.572;13.378;2022-09-12T17:18:48;18.40;99.90
48488;DHT22;34289;48.572;13.378;2022-09-12T17:21:14;18.20;99.90
48488;DHT22;34289;48.572;13.378;2022-09-12T17:23:40;18.10;99.90
48488;DHT22;34289;48.572;13.378;2022-09-12T17:26:06;18.00;99.90
48488;DHT22;34289;48.572;13.378;2022-09-12T17:28:32;17.80;99.90
48488;DHT22;34289;48.572;13.378;2022-09-12T17:31:00;17.70;99.90
48488;DHT22;34289;48.572;13.378;2022-09-12T17:33:27;17.60;99.90
48488;DHT22;34289;48.572;13.378;2022-09-12T17:35:53;17.50;99.90
48488;DHT22;34289;48.572;13.378;2022-09-12T17:38:19;17.40;99.90
48488;DHT22;34289;48.572;13.378;2022-09-12T17:40:47;17.30;99.90
48488;DHT22;34289;48.572;13.378;2022-09-12T17:43:13;17.10;99.90
48488;DHT22;34289;48.572;13.378;2022-09-12T17:45:39;16.90;99.90
48488;DHT22;34289;48.572;13.378;2022-09-12T17:48:06;16.80;99.90
48488;DHT22;34289;48.572;13.378;2022-09-12T17:50:39;16.60;99.90
48488;DHT22;34289;48.572;13.378;2022-09-12T17:53:05;16.30;99.90
48488;DHT22;34289;48.572;13.378;2022-09-12T17:55:35;16.40;99.90
48488;DHT22;34289;48.572;13.378;2022-09-12T17:58:01;16.40;99.90
48488;DHT22;34289;48.572;13.378;2022-09-12T18:00:28;16.40;99.90
48488;DHT22;34289;48.572;13.378;2022-09-12T18:03:13;16.40;99.90
48488;DHT22;34289;48.572;13.378;2022-09-12T18:05:46;16.30;99.90
48488;DHT22;34289;48.572;13.378;2022-09-12T18:08:12;16.20;99.90
48488;DHT22;34289;48.572;13.378;2022-09-12T18:10:38;16.10;99.90
48488;DHT22;34289;48.572;13.378;2022-09-12T18:13:04;16.00;99.90